createdAt,value
2023-05-08T00:01:27.699Z,97440.31
2023-05-08T00:03:30.475Z,97439.44
2023-05-08T00:05:33.179Z,97437.81
2023-05-08T00:07:38.614Z,97441.50
2023-05-08T00:09:41.182Z,97440.66
2023-05-08T00:11:43.873Z,97445.91
2023-05-08T00:13:46.446Z,97443.28
2023-05-08T00:15:49.171Z,97441.59
2023-05-08T00:17:51.791Z,97437.25
2023-05-08T00:19:54.506Z,97441.69
2023-05-08T00:21:57.108Z,97444.22
2023-05-08T00:24:01.040Z,97442.50
2023-05-08T00:26:03.611Z,97440.81
2023-05-08T00:28:06.161Z,97444.41
2023-05-08T00:30:09.930Z,97441.78
2023-05-08T00:32:12.618Z,97448.81
2023-05-08T00:34:16.886Z,97445.31
2023-05-08T00:36:19.510Z,97441.84
2023-05-08T00:38:22.056Z,97444.47
2023-05-08T00:40:26.307Z,97442.69
2023-05-08T00:42:28.946Z,97452.28
2023-05-08T00:44:31.493Z,97449.56
2023-05-08T00:46:34.249Z,97450.50
2023-05-08T00:48:37.577Z,97441.78
2023-05-08T00:50:40.247Z,97445.31
2023-05-08T00:52:44.041Z,97452.28
2023-05-08T00:54:47.422Z,97451.34
2023-05-08T00:56:53.158Z,97452.22
2023-05-08T00:58:55.919Z,97450.41
2023-05-08T01:00:59.440Z,97455.66
2023-05-08T01:03:02.346Z,97457.56
2023-05-08T01:05:05.482Z,97456.59
2023-05-08T01:07:08.057Z,97456.53
2023-05-08T01:09:11.348Z,97456.59
2023-05-08T01:11:18.942Z,97458.28
2023-05-08T01:13:33.400Z,97467.22
2023-05-08T01:15:42.281Z,97469.75
2023-05-08T01:18:01.218Z,97470.84
2023-05-08T01:20:20.323Z,97464.94
2023-05-08T01:22:55.010Z,97465.88
2023-05-08T01:25:35.380Z,97460.63
2023-05-08T01:28:10.000Z,97464.09
2023-05-08T01:30:43.113Z,97461.38
2023-05-08T01:32:52.017Z,97466.53
2023-05-08T01:35:04.900Z,97467.41
2023-05-08T01:37:12.093Z,97467.41
2023-05-08T01:39:20.001Z,97464.78
2023-05-08T01:41:28.381Z,97461.28
2023-05-08T01:43:42.267Z,97465.59
2023-05-08T01:45:47.939Z,97473.41
2023-05-08T01:48:01.295Z,97471.03
2023-05-08T01:50:08.864Z,97470.19
2023-05-08T01:52:18.598Z,97474.63
2023-05-08T01:54:25.302Z,97472.81
2023-05-08T01:56:30.595Z,97479.03
2023-05-08T01:58:35.996Z,97482.56
2023-05-08T02:00:40.527Z,97485.19
2023-05-08T02:02:43.785Z,97484.28
2023-05-08T02:04:49.443Z,97476.38
2023-05-08T02:06:53.162Z,97479.88
2023-05-08T02:08:57.709Z,97481.66
2023-05-08T02:11:01.902Z,97482.41
2023-05-08T02:13:07.371Z,97484.28
2023-05-08T02:15:13.583Z,97490.41
2023-05-08T02:17:18.179Z,97486.81
2023-05-08T02:19:24.411Z,97486.81
2023-05-08T02:21:29.628Z,97479.78
2023-05-08T02:23:34.019Z,97486.81
2023-05-08T02:25:37.427Z,97478.94
2023-05-08T02:27:43.165Z,97476.38
2023-05-08T02:29:45.800Z,97482.50
2023-05-08T02:31:49.575Z,97484.19
2023-05-08T02:33:53.667Z,97483.34
2023-05-08T02:35:58.511Z,97484.28
2023-05-08T02:38:03.687Z,97478.06
2023-05-08T02:40:09.686Z,97485.97
2023-05-08T02:42:12.602Z,97488.59
2023-05-08T02:44:15.509Z,97480.72
2023-05-08T02:46:22.272Z,97474.53
2023-05-08T02:48:34.154Z,97476.22
2023-05-08T02:50:42.971Z,97480.66
2023-05-08T02:52:49.188Z,97482.41
2023-05-08T02:55:00.071Z,97479.03
2023-05-08T02:57:09.312Z,97476.44
2023-05-08T02:59:18.534Z,97475.59
2023-05-08T03:01:27.128Z,97478.31
2023-05-08T03:03:37.542Z,97473.91
2023-05-08T03:05:44.092Z,97477.38
2023-05-08T03:07:51.005Z,97476.44
2023-05-08T03:10:03.040Z,97472.97
2023-05-08T03:12:10.892Z,97471.28
2023-05-08T03:14:16.923Z,97470.50
2023-05-08T03:16:23.050Z,97471.44
2023-05-08T03:18:31.832Z,97477.53
2023-05-08T03:20:38.422Z,97469.75
2023-05-08T03:22:42.887Z,97471.53
2023-05-08T03:24:47.714Z,97475.09
2023-05-08T03:26:52.349Z,97476.88
2023-05-08T03:28:56.217Z,97476.09
2023-05-08T03:31:00.483Z,97475.19
2023-05-08T03:33:05.382Z,97474.44
2023-05-08T03:35:10.967Z,97469.06
2023-05-08T03:37:13.751Z,97470.03
2023-05-08T03:39:16.568Z,97473.56
2023-05-08T03:41:19.310Z,97475.28
2023-05-08T03:43:24.073Z,97483.16
2023-05-08T03:45:27.667Z,97476.09
2023-05-08T03:47:30.556Z,97478.00
2023-05-08T03:49:34.630Z,97475.28
2023-05-08T03:51:39.715Z,97478.81
2023-05-08T03:53:42.367Z,97485.88
2023-05-08T03:55:44.939Z,97484.19
2023-05-08T03:57:59.025Z,97485.94
2023-05-08T04:00:10.810Z,97478.91
2023-05-08T04:02:26.837Z,97480.69
2023-05-08T04:04:39.630Z,97478.06
2023-05-08T04:06:50.545Z,97483.31
2023-05-08T04:08:59.122Z,97479.88
2023-05-08T04:11:10.773Z,97479.88
2023-05-08T04:13:15.689Z,97483.41
2023-05-08T04:15:23.698Z,97486.97
2023-05-08T04:17:40.316Z,97494.09
2023-05-08T04:19:47.228Z,97499.34
2023-05-08T04:21:51.615Z,97500.31
2023-05-08T04:23:59.387Z,97502.06
2023-05-08T04:26:05.590Z,97502.94
2023-05-08T04:28:09.342Z,97510.81
2023-05-08T04:30:12.691Z,97508.19
2023-05-08T04:32:17.408Z,97507.34
2023-05-08T04:34:20.227Z,97512.59
2023-05-08T04:36:23.754Z,97515.22
2023-05-08T04:38:26.316Z,97517.84
2023-05-08T04:40:28.935Z,97515.22
2023-05-08T04:42:31.533Z,97512.59
2023-05-08T04:44:34.107Z,97522.25
2023-05-08T04:46:36.978Z,97521.44
2023-05-08T04:48:40.943Z,97511.75
2023-05-08T04:50:43.495Z,97514.38
2023-05-08T04:52:46.041Z,97525.81
2023-05-08T04:54:48.600Z,97519.63
2023-05-08T04:56:51.325Z,97525.75
2023-05-08T04:58:54.048Z,97526.69
2023-05-08T05:00:57.829Z,97525.81
2023-05-08T05:03:00.412Z,97527.50
2023-05-08T05:05:04.504Z,97531.00
2023-05-08T05:07:07.227Z,97535.41
2023-05-08T05:09:10.417Z,97532.69
2023-05-08T05:11:13.049Z,97539.75
2023-05-08T05:13:15.647Z,97537.03
2023-05-08T05:15:18.460Z,97537.03
2023-05-08T05:17:21.009Z,97537.84
2023-05-08T05:19:23.662Z,97531.69
2023-05-08T05:21:28.139Z,97538.63
2023-05-08T05:23:30.846Z,97538.72
2023-05-08T05:25:33.398Z,97543.88
2023-05-08T05:27:36.653Z,97539.66
2023-05-08T05:29:39.215Z,97539.56
2023-05-08T05:31:42.453Z,97540.41
2023-05-08T05:33:45.632Z,97540.41
2023-05-08T05:35:48.186Z,97542.19
2023-05-08T05:37:52.282Z,97546.50
2023-05-08T05:39:54.815Z,97546.50
2023-05-08T05:41:57.345Z,97553.47
2023-05-08T05:43:59.931Z,97547.03
2023-05-08T05:46:06.027Z,97546.38
2023-05-08T05:48:08.826Z,97550.00
2023-05-08T05:50:12.283Z,97549.13
2023-05-08T05:52:15.240Z,97544.66
2023-05-08T05:54:19.185Z,97542.88
2023-05-08T05:56:23.205Z,97542.78
2023-05-08T05:58:25.780Z,97546.28
2023-05-08T06:00:28.666Z,97544.47
2023-05-08T06:02:31.321Z,97549.66
2023-05-08T06:04:34.152Z,97547.88
2023-05-08T06:06:36.775Z,97544.31
2023-05-08T06:08:39.376Z,97552.56
2023-05-08T06:10:43.279Z,97557.22
2023-05-08T06:12:46.044Z,97550.19
2023-05-08T06:14:48.689Z,97544.81
2023-05-08T06:16:51.499Z,97557.38
2023-05-08T06:18:54.139Z,97552.22
2023-05-08T06:20:58.420Z,97563.56
2023-05-08T06:23:00.973Z,97555.66
2023-05-08T06:25:03.729Z,97553.03
2023-05-08T06:27:07.633Z,97552.13
2023-05-08T06:29:10.211Z,97556.53
2023-05-08T06:31:12.821Z,97562.66
2023-05-08T06:33:15.459Z,97560.84
2023-05-08T06:35:19.360Z,97558.22
2023-05-08T06:37:22.024Z,97564.31
2023-05-08T06:39:24.845Z,97561.78
2023-05-08T06:41:27.584Z,97554.66
2023-05-08T06:43:31.760Z,97555.53
2023-05-08T06:45:34.306Z,97563.31
2023-05-08T06:47:36.970Z,97565.09
2023-05-08T06:49:39.668Z,97560.78
2023-05-08T06:51:42.218Z,97564.16
2023-05-08T06:53:44.771Z,97563.22
2023-05-08T06:55:47.349Z,97568.50
2023-05-08T06:57:50.161Z,97569.34
2023-05-08T06:59:56.031Z,97566.72
2023-05-08T07:01:59.149Z,97570.22
2023-05-08T07:04:01.777Z,97570.13
2023-05-08T07:06:04.402Z,97570.13
2023-05-08T07:08:06.968Z,97573.69
2023-05-08T07:10:10.310Z,97571.06
2023-05-08T07:12:12.870Z,97564.03
2023-05-08T07:14:15.600Z,97571.06
2023-05-08T07:16:19.674Z,97569.28
2023-05-08T07:18:22.348Z,97572.84
2023-05-08T07:20:25.230Z,97578.00
2023-05-08T07:22:27.896Z,97573.59
2023-05-08T07:24:30.525Z,97570.81
2023-05-08T07:26:33.127Z,97583.13
2023-05-08T07:28:35.740Z,97576.91
2023-05-08T07:30:38.362Z,97575.22
2023-05-08T07:32:42.378Z,97582.25
2023-05-08T07:34:45.139Z,97577.88
2023-05-08T07:36:47.692Z,97583.13
2023-05-08T07:38:50.274Z,97579.72
2023-05-08T07:40:57.055Z,97585.00
2023-05-08T07:42:59.781Z,97586.75
2023-05-08T07:45:05.493Z,97590.25
2023-05-08T07:47:08.109Z,97589.47
2023-05-08T07:49:12.073Z,97591.16
2023-05-08T07:51:14.641Z,97592.16
2023-05-08T07:53:17.315Z,97587.75
2023-05-08T07:55:21.494Z,97594.78
2023-05-08T07:57:24.076Z,97591.31
2023-05-08T07:59:26.631Z,97593.34
2023-05-08T08:01:29.218Z,97592.41
2023-05-08T08:03:31.860Z,97598.59
2023-05-08T08:05:36.054Z,97598.59
2023-05-08T08:07:38.640Z,97605.53
2023-05-08T08:09:41.219Z,97592.47
2023-05-08T08:11:43.787Z,97598.59
2023-05-08T08:13:46.475Z,97599.53
2023-05-08T08:15:49.054Z,97597.75
2023-05-08T08:17:51.635Z,97598.59
2023-05-08T08:19:54.438Z,97602.91
2023-05-08T08:21:58.332Z,97595.03
2023-05-08T08:24:01.342Z,97599.38
2023-05-08T08:26:03.946Z,97599.38
2023-05-08T08:28:06.678Z,97593.25
2023-05-08T08:30:17.619Z,97600.28
2023-05-08T08:32:20.936Z,97598.59
2023-05-08T08:34:23.624Z,97599.28
2023-05-08T08:36:26.338Z,97602.78
2023-05-08T08:38:30.769Z,97602.69
2023-05-08T08:40:33.579Z,97603.47
2023-05-08T08:42:36.208Z,97596.38
2023-05-08T08:44:40.047Z,97600.75
2023-05-08T08:46:50.918Z,97603.41
2023-05-08T08:48:55.895Z,97598.03
2023-05-08T08:51:03.784Z,97597.97
2023-05-08T08:53:11.369Z,97603.22
2023-05-08T08:55:17.464Z,97596.09
2023-05-08T08:57:21.171Z,97597.78
2023-05-08T08:59:26.111Z,97601.34
2023-05-08T09:01:31.016Z,97604.75
2023-05-08T09:03:33.775Z,97601.19
2023-05-08T09:05:37.047Z,97607.22
2023-05-08T09:07:41.045Z,97603.63
2023-05-08T09:09:45.912Z,97605.25
2023-05-08T09:11:49.854Z,97599.91
2023-05-08T09:13:52.717Z,97602.38
2023-05-08T09:15:55.386Z,97601.53
2023-05-08T09:17:57.985Z,97613.75
2023-05-08T09:20:01.146Z,97602.28
2023-05-08T09:22:06.758Z,97610.03
2023-05-08T09:24:09.798Z,97602.81
2023-05-08T09:26:28.035Z,97605.34
2023-05-08T09:28:31.917Z,97599.91
2023-05-08T09:30:49.703Z,97602.44
2023-05-08T09:33:02.897Z,97602.84
2023-05-08T09:35:06.934Z,97603.81
2023-05-08T09:37:13.612Z,97603.69
2023-05-08T09:39:23.404Z,97602.94
2023-05-08T09:41:26.688Z,97599.38
2023-05-08T09:43:29.284Z,97604.88
2023-05-08T09:45:35.353Z,97608.47
2023-05-08T09:47:39.514Z,97604.88
2023-05-08T09:49:57.706Z,97605.47
2023-05-08T09:52:00.342Z,97607.28
2023-05-08T09:54:05.812Z,97610.56
2023-05-08T09:56:08.588Z,97611.50
2023-05-08T09:58:11.469Z,97611.41
2023-05-08T10:00:15.419Z,97605.22
2023-05-08T10:02:21.045Z,97615.75
2023-05-08T10:04:33.328Z,97610.47
2023-05-08T10:06:36.491Z,97613.94
2023-05-08T10:08:39.155Z,97614.03
2023-05-08T10:10:41.707Z,97605.13
2023-05-08T10:12:44.663Z,97609.28
2023-05-08T10:14:47.284Z,97606.19
2023-05-08T10:16:53.874Z,97609.31
2023-05-08T10:19:05.761Z,97613.09
2023-05-08T10:21:09.805Z,97606.97
2023-05-08T10:23:17.527Z,97607.72
2023-05-08T10:25:23.265Z,97604.63
2023-05-08T10:27:34.408Z,97605.88
2023-05-08T10:29:43.437Z,97595.63
2023-05-08T10:31:47.782Z,97605.22
2023-05-08T10:33:52.250Z,97604.47
2023-05-08T10:35:56.392Z,97605.88
2023-05-08T10:38:00.280Z,97603.44
2023-05-08T10:40:05.193Z,97601.56
2023-05-08T10:42:08.241Z,97604.75
2023-05-08T10:44:11.392Z,97597.63
2023-05-08T10:46:22.857Z,97597.72
2023-05-08T10:48:34.100Z,97606.47
2023-05-08T10:50:45.703Z,97597.63
2023-05-08T10:52:56.857Z,97594.91
2023-05-08T10:55:17.636Z,97596.59
2023-05-08T10:57:20.377Z,97597.22
2023-05-08T10:59:23.803Z,97593.63
2023-05-08T11:01:27.411Z,97590.31
2023-05-08T11:03:33.108Z,97592.25
2023-05-08T11:05:47.381Z,97594.03
2023-05-08T11:07:58.367Z,97590.66
2023-05-08T11:10:13.852Z,97597.13
2023-05-08T11:12:26.609Z,97593.03
2023-05-08T11:14:30.783Z,97593.22
2023-05-08T11:17:05.164Z,97587.38
2023-05-08T11:19:17.781Z,97587.28
2023-05-08T11:21:22.519Z,97591.59
2023-05-08T11:23:27.975Z,97596.59
2023-05-08T11:25:43.610Z,97587.94
2023-05-08T11:28:15.687Z,97586.22
2023-05-08T11:30:21.899Z,97582.00
2023-05-08T11:32:26.261Z,97577.41
2023-05-08T11:34:47.514Z,97580.97
2023-05-08T11:37:02.474Z,97573.16
2023-05-08T11:39:12.730Z,97585.31
2023-05-08T11:41:22.660Z,97587.09
2023-05-08T11:44:01.574Z,97583.44
2023-05-08T11:46:05.795Z,97588.69
2023-05-08T11:48:10.096Z,97594.03
2023-05-08T11:50:14.726Z,97583.50
2023-05-08T11:52:19.661Z,97580.13
2023-05-08T11:54:24.121Z,97579.38
2023-05-08T11:56:26.892Z,97579.38
2023-05-08T11:58:29.491Z,97587.09
2023-05-08T12:00:32.126Z,97580.13
2023-05-08T12:02:39.446Z,97578.31
2023-05-08T12:04:46.652Z,97579.38
2023-05-08T12:06:51.448Z,97579.28
2023-05-08T12:08:54.143Z,97589.53
2023-05-08T12:10:58.855Z,97585.13
2023-05-08T12:13:01.473Z,97583.34
2023-05-08T12:15:07.713Z,97586.91
2023-05-08T12:17:11.209Z,97589.38
2023-05-08T12:19:14.795Z,97584.03
2023-05-08T12:21:17.404Z,97586.47
2023-05-08T12:23:20.420Z,97582.78
2023-05-08T12:25:23.000Z,97581.59
2023-05-08T12:27:27.966Z,97585.94
2023-05-08T12:29:30.721Z,97580.72
2023-05-08T12:31:33.700Z,97583.47
2023-05-08T12:33:36.370Z,97587.91
2023-05-08T12:35:40.133Z,97584.50
2023-05-08T12:37:42.881Z,97586.94
2023-05-08T12:39:45.744Z,97586.84
2023-05-08T12:41:49.519Z,97592.03
2023-05-08T12:43:53.457Z,97595.06
2023-05-08T12:45:56.026Z,97589.91
2023-05-08T12:48:03.923Z,97587.91
2023-05-08T12:50:12.270Z,97591.75
2023-05-08T12:52:15.145Z,97586.50
2023-05-08T12:54:17.781Z,97587.16
2023-05-08T12:56:23.100Z,97583.03
2023-05-08T12:58:27.134Z,97587.44
2023-05-08T13:00:38.807Z,97588.31
2023-05-08T13:02:49.315Z,97596.03
2023-05-08T13:04:57.886Z,97590.75
2023-05-08T13:07:00.659Z,97586.41
2023-05-08T13:09:03.267Z,97591.59
2023-05-08T13:11:07.234Z,97596.78
2023-05-08T13:13:09.848Z,97588.66
2023-05-08T13:15:12.839Z,97588.47
2023-05-08T13:17:19.739Z,97585.84
2023-05-08T13:19:22.286Z,97582.28
2023-05-08T13:21:27.323Z,97577.72
2023-05-08T13:23:30.477Z,97577.91
2023-05-08T13:25:33.552Z,97578.00
2023-05-08T13:27:36.086Z,97576.59
2023-05-08T13:29:38.639Z,97578.66
2023-05-08T13:31:41.223Z,97575.91
2023-05-08T13:33:45.272Z,97574.72
2023-05-08T13:35:47.905Z,97574.06
2023-05-08T13:37:50.862Z,97567.25
2023-05-08T13:39:53.409Z,97569.72
2023-05-08T13:41:56.049Z,97563.38
2023-05-08T13:43:58.600Z,97557.78
2023-05-08T13:46:01.207Z,97546.81
2023-05-08T13:48:04.006Z,97550.34
2023-05-08T13:50:09.852Z,97544.38
2023-05-08T13:52:12.449Z,97547.47
2023-05-08T13:54:15.013Z,97537.00
2023-05-08T13:56:17.613Z,97538.19
2023-05-08T13:58:20.223Z,97532.06
2023-05-08T14:00:22.761Z,97541.19
2023-05-08T14:02:25.474Z,97536.66
2023-05-08T14:04:28.141Z,97536.81
2023-05-08T14:06:32.538Z,97537.44
2023-05-08T14:08:40.090Z,97542.00
2023-05-08T14:10:47.284Z,97534.00
2023-05-08T14:12:49.898Z,97532.53
2023-05-08T14:14:52.482Z,97530.19
2023-05-08T14:16:55.042Z,97529.84
2023-05-08T14:18:57.615Z,97521.44
2023-05-08T14:21:00.161Z,97522.97
2023-05-08T14:23:04.051Z,97514.69
2023-05-08T14:25:07.994Z,97520.03
2023-05-08T14:27:10.651Z,97512.56
2023-05-08T14:29:13.195Z,97513.28
2023-05-08T14:31:15.888Z,97512.19
2023-05-08T14:33:19.461Z,97523.31
2023-05-08T14:35:22.199Z,97522.25
2023-05-08T14:37:24.755Z,97519.50
2023-05-08T14:39:28.667Z,97514.00
2023-05-08T14:41:32.153Z,97516.28
2023-05-08T14:43:34.686Z,97525.53
2023-05-08T14:45:37.332Z,97520.44
2023-05-08T14:47:39.919Z,97519.75
2023-05-08T14:49:42.498Z,97525.31
2023-05-08T14:51:45.019Z,97516.69
2023-05-08T14:53:47.800Z,97515.03
2023-05-08T14:55:52.128Z,97523.22
2023-05-08T14:57:54.813Z,97524.91
2023-05-08T14:59:57.379Z,97515.50
2023-05-08T15:02:00.094Z,97513.88
2023-05-08T15:04:02.848Z,97512.53
2023-05-08T15:06:06.122Z,97517.97
2023-05-08T15:08:09.674Z,97518.53
2023-05-08T15:10:12.553Z,97513.13
2023-05-08T15:12:16.460Z,97516.88
2023-05-08T15:14:19.009Z,97516.50
2023-05-08T15:16:21.580Z,97524.31
2023-05-08T15:18:24.591Z,97516.91
2023-05-08T15:20:27.202Z,97518.19
2023-05-08T15:22:29.741Z,97510.25
2023-05-08T15:24:32.337Z,97513.88
2023-05-08T15:26:34.885Z,97513.03
2023-05-08T15:28:41.231Z,97514.06
2023-05-08T15:30:46.518Z,97513.66
2023-05-08T15:32:49.444Z,97514.13
2023-05-08T15:34:52.161Z,97511.53
2023-05-08T15:36:54.702Z,97510.66
2023-05-08T15:38:57.225Z,97507.16
2023-05-08T15:40:59.766Z,97506.91
2023-05-08T15:43:02.340Z,97513.56
2023-05-08T15:45:07.185Z,97512.28
2023-05-08T15:47:09.781Z,97511.50
2023-05-08T15:49:12.304Z,97519.44
2023-05-08T15:51:14.849Z,97510.25
2023-05-08T15:53:17.474Z,97521.81
2023-05-08T15:55:21.402Z,97519.38
2023-05-08T15:57:26.955Z,97524.03
2023-05-08T15:59:29.497Z,97519.81
2023-05-08T16:01:33.463Z,97524.25
2023-05-08T16:03:36.145Z,97524.38
2023-05-08T16:05:39.469Z,97526.88
2023-05-08T16:07:42.104Z,97525.50
2023-05-08T16:09:44.686Z,97520.50
2023-05-08T16:11:48.885Z,97526.38
2023-05-08T16:13:51.535Z,97525.13
2023-05-08T16:15:56.361Z,97530.06
2023-05-08T16:18:00.330Z,97524.09
2023-05-08T16:20:03.789Z,97527.91
2023-05-08T16:22:06.864Z,97533.81
2023-05-08T16:24:09.487Z,97520.25
2023-05-08T16:26:13.106Z,97519.03
2023-05-08T16:28:15.986Z,97524.59
2023-05-08T16:30:19.215Z,97517.38
2023-05-08T16:32:21.857Z,97523.97
2023-05-08T16:34:25.804Z,97524.38
2023-05-08T16:36:28.433Z,97529.19
2023-05-08T16:38:31.049Z,97540.38
2023-05-08T16:40:33.637Z,97535.31
2023-05-08T16:42:36.992Z,97540.84
2023-05-08T16:44:39.594Z,97535.03
2023-05-08T16:46:42.190Z,97543.72
2023-05-08T16:48:44.987Z,97545.59
2023-05-08T16:50:48.891Z,97542.00
2023-05-08T16:52:51.478Z,97540.84
2023-05-08T16:54:54.216Z,97539.34
2023-05-08T16:56:56.775Z,97546.31
2023-05-08T16:59:01.356Z,97552.72
2023-05-08T17:01:04.405Z,97558.31
2023-05-08T17:03:06.998Z,97560.59
2023-05-08T17:05:10.279Z,97561.47
2023-05-08T17:07:14.299Z,97566.09
2023-05-08T17:09:18.381Z,97566.31
2023-05-08T17:11:21.754Z,97569.13
2023-05-08T17:13:24.456Z,97571.53
2023-05-08T17:15:27.328Z,97578.47
2023-05-08T17:17:29.912Z,97573.63
2023-05-08T17:19:32.506Z,97580.47
2023-05-08T17:21:35.168Z,97586.50
2023-05-08T17:23:39.108Z,97585.69
2023-05-08T17:25:41.674Z,97583.22
2023-05-08T17:27:44.246Z,97592.28
2023-05-08T17:29:46.865Z,97595.75
2023-05-08T17:31:49.405Z,97589.56
2023-05-08T17:33:52.005Z,97587.66
2023-05-08T17:35:54.873Z,97592.56
2023-05-08T17:37:57.442Z,97593.31
2023-05-08T17:40:01.372Z,97588.81
2023-05-08T17:42:03.993Z,97591.91
2023-05-08T17:44:07.023Z,97591.34
2023-05-08T17:46:09.788Z,97588.16
2023-05-08T17:48:12.523Z,97590.19
2023-05-08T17:50:15.183Z,97591.88
2023-05-08T17:52:17.876Z,97591.78
2023-05-08T17:54:20.478Z,97590.56
2023-05-08T17:56:24.428Z,97594.25
2023-05-08T17:58:27.010Z,97591.78
2023-05-08T18:00:29.588Z,97592.25
2023-05-08T18:02:32.908Z,97587.16
2023-05-08T18:04:35.543Z,97586.03
2023-05-08T18:06:38.156Z,97588.50
2023-05-08T18:08:42.127Z,97593.16
2023-05-08T18:10:45.796Z,97587.63
2023-05-08T18:12:50.800Z,97592.63
2023-05-08T18:14:53.425Z,97587.09
2023-05-08T18:16:56.019Z,97586.31
2023-05-08T18:18:58.600Z,97589.72
2023-05-08T18:21:01.221Z,97594.69
2023-05-08T18:23:03.968Z,97588.56
2023-05-08T18:25:07.326Z,97597.53
2023-05-08T18:27:09.899Z,97595.72
2023-05-08T18:29:13.857Z,97598.66
2023-05-08T18:31:16.618Z,97593.28
2023-05-08T18:33:19.354Z,97601.38
2023-05-08T18:35:22.466Z,97600.91
2023-05-08T18:37:25.780Z,97599.19
2023-05-08T18:39:28.329Z,97609.06
2023-05-08T18:41:30.907Z,97601.94
2023-05-08T18:43:33.458Z,97601.84
2023-05-08T18:45:40.643Z,97603.44
2023-05-08T18:47:43.277Z,97602.59
2023-05-08T18:49:45.832Z,97597.31
2023-05-08T18:51:48.403Z,97598.09
2023-05-08T18:53:51.038Z,97599.75
2023-05-08T18:55:53.877Z,97591.84
2023-05-08T18:57:56.484Z,97598.00
2023-05-08T18:59:59.074Z,97600.72
2023-05-08T19:02:02.976Z,97602.50
2023-05-08T19:04:05.881Z,97596.41
2023-05-08T19:06:08.541Z,97601.75
2023-05-08T19:08:11.106Z,97598.19
2023-05-08T19:10:13.995Z,97599.97
2023-05-08T19:12:16.806Z,97600.91
2023-05-08T19:14:19.497Z,97605.31
2023-05-08T19:16:22.092Z,97604.47
2023-05-08T19:18:26.024Z,97605.31
2023-05-08T19:20:28.667Z,97607.97
2023-05-08T19:22:35.233Z,97613.34
2023-05-08T19:24:38.757Z,97603.91
2023-05-08T19:26:41.538Z,97606.53
2023-05-08T19:28:44.091Z,97606.06
2023-05-08T19:30:46.929Z,97602.75
2023-05-08T19:32:50.461Z,97607.09
2023-05-08T19:34:57.270Z,97601.81
2023-05-08T19:36:59.853Z,97604.53
2023-05-08T19:39:02.525Z,97608.03
2023-05-08T19:41:05.103Z,97602.88
2023-05-08T19:43:07.692Z,97599.38
2023-05-08T19:45:11.833Z,97598.44
2023-05-08T19:47:15.003Z,97601.19
2023-05-08T19:49:17.634Z,97601.34
2023-05-08T19:51:21.612Z,97603.16
2023-05-08T19:53:24.427Z,97604.06
2023-05-08T19:55:27.740Z,97594.47
2023-05-08T19:57:30.347Z,97597.28
2023-05-08T19:59:32.891Z,97596.34
2023-05-08T20:01:35.509Z,97594.81
2023-05-08T20:03:38.153Z,97598.38
2023-05-08T20:05:40.871Z,97596.75
2023-05-08T20:07:44.821Z,97590.81
2023-05-08T20:09:47.362Z,97597.16
2023-05-08T20:11:49.915Z,97600.88
2023-05-08T20:13:52.517Z,97599.28
2023-05-08T20:15:55.132Z,97591.56
2023-05-08T20:17:59.211Z,97597.78
2023-05-08T20:20:01.898Z,97595.22
2023-05-08T20:22:04.502Z,97596.16
2023-05-08T20:24:08.639Z,97597.97
2023-05-08T20:26:11.241Z,97592.78
2023-05-08T20:28:13.842Z,97590.16
2023-05-08T20:30:16.586Z,97592.84
2023-05-08T20:32:20.184Z,97590.41
2023-05-08T20:34:22.785Z,97588.63
2023-05-08T20:36:27.585Z,97593.97
2023-05-08T20:38:30.191Z,97595.84
2023-05-08T20:40:34.662Z,97599.41
2023-05-08T20:42:37.903Z,97599.41
2023-05-08T20:44:40.507Z,97595.94
2023-05-08T20:46:43.131Z,97599.41
2023-05-08T20:48:45.745Z,97603.84
2023-05-08T20:50:48.958Z,97601.31
2023-05-08T20:52:51.783Z,97593.41
2023-05-08T20:54:54.411Z,97589.06
2023-05-08T20:56:58.402Z,97594.31
2023-05-08T20:59:00.964Z,97596.13
2023-05-08T21:01:03.724Z,97595.19
2023-05-08T21:03:06.381Z,97591.69
2023-05-08T21:05:09.683Z,97590.88
2023-05-08T21:07:12.401Z,97582.00
2023-05-08T21:09:14.962Z,97583.78
2023-05-08T21:11:17.547Z,97582.09
2023-05-08T21:13:21.604Z,97573.25
2023-05-08T21:15:24.227Z,97572.44
2023-05-08T21:17:26.965Z,97572.50
2023-05-08T21:19:31.060Z,97573.44
2023-05-08T21:21:33.614Z,97566.66
2023-05-08T21:23:36.237Z,97574.56
2023-05-08T21:25:38.807Z,97571.09
2023-05-08T21:27:41.409Z,97569.38
2023-05-08T21:29:45.334Z,97569.38
2023-05-08T21:31:47.944Z,97569.38
2023-05-08T21:33:51.910Z,97563.28
2023-05-08T21:35:54.752Z,97570.31
2023-05-08T21:37:57.366Z,97567.03
2023-05-08T21:39:59.922Z,97570.50
2023-05-08T21:42:03.162Z,97563.44
2023-05-08T21:44:06.624Z,97558.16
2023-05-08T21:46:10.623Z,97561.78
2023-05-08T21:48:13.248Z,97561.19
2023-05-08T21:50:15.833Z,97562.13
2023-05-08T21:52:22.058Z,97567.41
2023-05-08T21:54:24.781Z,97565.53
2023-05-08T21:56:27.430Z,97568.03
2023-05-08T21:58:29.993Z,97571.22
2023-05-08T22:00:32.597Z,97567.66
2023-05-08T22:02:36.625Z,97567.47
2023-05-08T22:04:39.204Z,97563.84
2023-05-08T22:06:43.194Z,97569.78
2023-05-08T22:08:45.983Z,97573.16
2023-05-08T22:10:48.665Z,97568.59
2023-05-08T22:12:51.253Z,97568.50
2023-05-08T22:14:53.871Z,97566.63
2023-05-08T22:16:56.407Z,97566.63
2023-05-08T22:19:00.329Z,97570.84
2023-05-08T22:21:02.917Z,97571.94
2023-05-08T22:23:05.771Z,97570.16
2023-05-08T22:25:09.326Z,97568.41
2023-05-08T22:27:11.895Z,97559.56
2023-05-08T22:29:16.519Z,97563.81
2023-05-08T22:31:19.407Z,97570.75
2023-05-08T22:33:21.986Z,97560.22
2023-05-08T22:35:27.839Z,97561.09
2023-05-08T22:37:30.503Z,97563.13
2023-05-08T22:39:33.095Z,97564.72
2023-05-08T22:41:35.772Z,97564.81
2023-05-08T22:43:38.377Z,97558.72
2023-05-08T22:45:41.323Z,97552.50
2023-05-08T22:47:44.286Z,97553.28
2023-05-08T22:49:48.012Z,97543.75
2023-05-08T22:51:52.032Z,97548.09
2023-05-08T22:53:56.138Z,97542.84
2023-05-08T22:55:58.723Z,97547.25
2023-05-08T22:58:01.420Z,97532.31
2023-05-08T23:00:04.271Z,97540.22
2023-05-08T23:02:06.904Z,97527.16
2023-05-08T23:04:09.534Z,97524.50
2023-05-08T23:06:12.135Z,97525.44
2023-05-08T23:08:16.036Z,97524.50
2023-05-08T23:10:18.879Z,97526.28
2023-05-08T23:12:21.611Z,97513.22
2023-05-08T23:14:24.232Z,97515.00
2023-05-08T23:16:26.836Z,97512.38
2023-05-08T23:18:29.403Z,97505.31
2023-05-08T23:20:31.998Z,97500.97
2023-05-08T23:22:34.564Z,97500.16
2023-05-08T23:24:38.635Z,97487.91
2023-05-08T23:26:42.220Z,97489.69
2023-05-08T23:28:44.882Z,97490.66
2023-05-08T23:30:47.448Z,97488.09
2023-05-08T23:32:50.164Z,97485.56
2023-05-08T23:34:52.741Z,97486.47
2023-05-08T23:36:55.643Z,97476.91
2023-05-08T23:38:58.253Z,97474.38
2023-05-08T23:41:02.228Z,97476.25
2023-05-08T23:43:06.091Z,97474.72
2023-05-08T23:45:09.590Z,97478.38
2023-05-08T23:47:12.409Z,97473.22
2023-05-08T23:49:15.026Z,97470.69
2023-05-08T23:51:17.815Z,97476.00
2023-05-08T23:53:20.699Z,97478.63
2023-05-08T23:55:23.339Z,97478.72
2023-05-08T23:57:27.262Z,97467.44
2023-05-08T23:59:29.839Z,97469.34
